sensor_id;sensor_type;location;lat;lon;timestamp;temperature;humidity
6948;DHT22;3513;47.664;9.162;2023-06-10T00:01:57;19.10;65.30
6948;DHT22;3513;47.664;9.162;2023-06-10T00:04:27;19.00;65.10
6948;DHT22;3513;47.664;9.162;2023-06-10T00:06:53;18.90;65.40
6948;DHT22;3513;47.664;9.162;2023-06-10T00:09:19;18.90;65.90
6948;DHT22;3513;47.664;9.162;2023-06-10T00:11:46;18.80;66.30
6948;DHT22;3513;47.664;9.162;2023-06-10T00:14:12;18.70;66.30
6948;DHT22;3513;47.664;9.162;2023-06-10T00:16:38;18.70;68.00
6948;DHT22;3513;47.664;9.162;2023-06-10T00:19:04;18.70;67.10
6948;DHT22;3513;47.664;9.162;2023-06-10T00:21:34;18.70;67.70
6948;DHT22;3513;47.664;9.162;2023-06-10T00:24:06;18.80;67.70
6948;DHT22;3513;47.664;9.162;2023-06-10T00:26:35;18.70;67.50
6948;DHT22;3513;47.664;9.162;2023-06-10T00:29:01;18.60;68.10
6948;DHT22;3513;47.664;9.162;2023-06-10T00:31:26;18.50;68.50
6948;DHT22;3513;47.664;9.162;2023-06-10T00:33:52;18.40;68.50
6948;DHT22;3513;47.664;9.162;2023-06-10T00:36:18;18.40;69.40
6948;DHT22;3513;47.664;9.162;2023-06-10T00:38:44;18.40;69.40
6948;DHT22;3513;47.664;9.162;2023-06-10T00:41:10;18.20;69.30
6948;DHT22;3513;47.664;9.162;2023-06-10T00:43:37;18.30;71.30
6948;DHT22;3513;47.664;9.162;2023-06-10T00:46:02;18.40;70.50
6948;DHT22;3513;47.664;9.162;2023-06-10T00:48:28;18.30;70.10
6948;DHT22;3513;47.664;9.162;2023-06-10T00:50:54;18.30;70.50
6948;DHT22;3513;47.664;9.162;2023-06-10T00:53:21;18.30;70.80
6948;DHT22;3513;47.664;9.162;2023-06-10T00:55:48;18.20;70.90
6948;DHT22;3513;47.664;9.162;2023-06-10T00:58:13;18.20;71.30
6948;DHT22;3513;47.664;9.162;2023-06-10T01:00:39;18.10;70.70
6948;DHT22;3513;47.664;9.162;2023-06-10T01:03:05;18.10;71.20
6948;DHT22;3513;47.664;9.162;2023-06-10T01:05:36;18.00;70.70
6948;DHT22;3513;47.664;9.162;2023-06-10T01:08:09;17.90;71.20
6948;DHT22;3513;47.664;9.162;2023-06-10T01:13:16;17.70;71.80
6948;DHT22;3513;47.664;9.162;2023-06-10T01:15:43;17.70;72.70
6948;DHT22;3513;47.664;9.162;2023-06-10T01:18:10;17.70;73.00
6948;DHT22;3513;47.664;9.162;2023-06-10T01:20:41;17.70;74.00
6948;DHT22;3513;47.664;9.162;2023-06-10T01:23:09;17.70;73.60
6948;DHT22;3513;47.664;9.162;2023-06-10T01:25:38;17.70;73.60
6948;DHT22;3513;47.664;9.162;2023-06-10T01:28:17;17.60;74.00
6948;DHT22;3513;47.664;9.162;2023-06-10T01:33:36;17.50;75.20
6948;DHT22;3513;47.664;9.162;2023-06-10T01:36:03;17.50;76.60
6948;DHT22;3513;47.664;9.162;2023-06-10T01:38:33;17.50;76.50
6948;DHT22;3513;47.664;9.162;2023-06-10T01:41:01;17.60;76.50
6948;DHT22;3513;47.664;9.162;2023-06-10T01:43:26;17.50;75.80
6948;DHT22;3513;47.664;9.162;2023-06-10T01:45:52;17.40;76.10
6948;DHT22;3513;47.664;9.162;2023-06-10T01:48:18;17.30;76.90
6948;DHT22;3513;47.664;9.162;2023-06-10T01:50:43;17.30;77.40
6948;DHT22;3513;47.664;9.162;2023-06-10T01:53:09;17.20;77.50
6948;DHT22;3513;47.664;9.162;2023-06-10T01:55:35;17.10;78.20
6948;DHT22;3513;47.664;9.162;2023-06-10T01:58:00;17.10;78.80
6948;DHT22;3513;47.664;9.162;2023-06-10T02:00:26;17.10;79.30
6948;DHT22;3513;47.664;9.162;2023-06-10T02:02:52;17.10;80.00
6948;DHT22;3513;47.664;9.162;2023-06-10T02:05:17;17.10;79.60
6948;DHT22;3513;47.664;9.162;2023-06-10T02:07:43;17.10;79.40
6948;DHT22;3513;47.664;9.162;2023-06-10T02:10:09;17.10;80.80
6948;DHT22;3513;47.664;9.162;2023-06-10T02:12:35;17.00;80.80
6948;DHT22;3513;47.664;9.162;2023-06-10T02:15:00;16.90;80.50
6948;DHT22;3513;47.664;9.162;2023-06-10T02:17:26;16.80;80.60
6948;DHT22;3513;47.664;9.162;2023-06-10T02:19:51;16.70;81.10
6948;DHT22;3513;47.664;9.162;2023-06-10T02:22:23;16.60;81.30
6948;DHT22;3513;47.664;9.162;2023-06-10T02:24:49;16.50;81.50
6948;DHT22;3513;47.664;9.162;2023-06-10T02:27:16;16.50;82.30
6948;DHT22;3513;47.664;9.162;2023-06-10T02:29:42;16.50;82.60
6948;DHT22;3513;47.664;9.162;2023-06-10T02:32:09;16.50;82.80
6948;DHT22;3513;47.664;9.162;2023-06-10T02:34:35;16.60;84.20
6948;DHT22;3513;47.664;9.162;2023-06-10T02:37:02;16.70;84.90
6948;DHT22;3513;47.664;9.162;2023-06-10T02:39:28;16.80;84.30
6948;DHT22;3513;47.664;9.162;2023-06-10T02:41:53;16.70;84.00
6948;DHT22;3513;47.664;9.162;2023-06-10T02:44:19;16.60;85.00
6948;DHT22;3513;47.664;9.162;2023-06-10T02:46:45;16.50;84.50
6948;DHT22;3513;47.664;9.162;2023-06-10T02:49:12;16.40;85.20
6948;DHT22;3513;47.664;9.162;2023-06-10T02:51:37;16.40;87.00
6948;DHT22;3513;47.664;9.162;2023-06-10T02:54:03;16.40;86.60
6948;DHT22;3513;47.664;9.162;2023-06-10T02:56:29;16.30;87.00
6948;DHT22;3513;47.664;9.162;2023-06-10T02:58:54;16.30;87.60
6948;DHT22;3513;47.664;9.162;2023-06-10T03:01:21;16.30;87.50
6948;DHT22;3513;47.664;9.162;2023-06-10T03:03:46;16.30;89.70
6948;DHT22;3513;47.664;9.162;2023-06-10T03:06:13;16.30;89.30
6948;DHT22;3513;47.664;9.162;2023-06-10T03:08:39;16.20;89.20
6948;DHT22;3513;47.664;9.162;2023-06-10T03:11:05;16.10;89.40
6948;DHT22;3513;47.664;9.162;2023-06-10T03:13:32;16.10;90.20
6948;DHT22;3513;47.664;9.162;2023-06-10T03:15:57;16.10;90.40
6948;DHT22;3513;47.664;9.162;2023-06-10T03:18:26;16.10;90.50
6948;DHT22;3513;47.664;9.162;2023-06-10T03:20:52;16.10;90.90
6948;DHT22;3513;47.664;9.162;2023-06-10T03:23:18;16.10;90.90
6948;DHT22;3513;47.664;9.162;2023-06-10T03:25:44;16.10;91.00
6948;DHT22;3513;47.664;9.162;2023-06-10T03:28:10;16.00;91.00
6948;DHT22;3513;47.664;9.162;2023-06-10T03:30:35;16.00;91.30
6948;DHT22;3513;47.664;9.162;2023-06-10T03:33:01;16.10;91.40
6948;DHT22;3513;47.664;9.162;2023-06-10T03:35:27;16.00;91.50
6948;DHT22;3513;47.664;9.162;2023-06-10T03:37:52;16.00;91.50
6948;DHT22;3513;47.664;9.162;2023-06-10T03:40:18;16.00;91.60
6948;DHT22;3513;47.664;9.162;2023-06-10T03:42:43;16.10;92.40
6948;DHT22;3513;47.664;9.162;2023-06-10T03:45:10;16.20;92.30
6948;DHT22;3513;47.664;9.162;2023-06-10T03:47:36;16.20;92.10
6948;DHT22;3513;47.664;9.162;2023-06-10T03:50:03;16.20;92.20
6948;DHT22;3513;47.664;9.162;2023-06-10T03:52:29;16.40;92.20
6948;DHT22;3513;47.664;9.162;2023-06-10T03:54:54;16.40;92.20
6948;DHT22;3513;47.664;9.162;2023-06-10T03:57:20;16.40;92.30
6948;DHT22;3513;47.664;9.162;2023-06-10T03:59:46;16.50;92.10
6948;DHT22;3513;47.664;9.162;2023-06-10T04:02:11;16.50;92.20
6948;DHT22;3513;47.664;9.162;2023-06-10T04:04:37;16.50;92.40
6948;DHT22;3513;47.664;9.162;2023-06-10T04:07:04;16.50;92.40
6948;DHT22;3513;47.664;9.162;2023-06-10T04:09:30;16.50;92.50
6948;DHT22;3513;47.664;9.162;2023-06-10T04:11:56;16.50;92.30
6948;DHT22;3513;47.664;9.162;2023-06-10T04:14:21;16.50;92.40
6948;DHT22;3513;47.664;9.162;2023-06-10T04:16:47;16.50;92.40
6948;DHT22;3513;47.664;9.162;2023-06-10T04:19:13;16.40;92.40
6948;DHT22;3513;47.664;9.162;2023-06-10T04:21:38;16.50;92.90
6948;DHT22;3513;47.664;9.162;2023-06-10T04:24:04;16.50;93.00
6948;DHT22;3513;47.664;9.162;2023-06-10T04:26:29;16.60;93.00
6948;DHT22;3513;47.664;9.162;2023-06-10T04:28:55;16.60;92.90
6948;DHT22;3513;47.664;9.162;2023-06-10T04:31:20;16.60;93.10
6948;DHT22;3513;47.664;9.162;2023-06-10T04:33:46;16.70;93.00
6948;DHT22;3513;47.664;9.162;2023-06-10T04:36:12;16.70;93.00
6948;DHT22;3513;47.664;9.162;2023-06-10T04:38:37;16.70;93.10
6948;DHT22;3513;47.664;9.162;2023-06-10T04:41:03;16.80;93.00
6948;DHT22;3513;47.664;9.162;2023-06-10T04:43:29;16.90;93.10
6948;DHT22;3513;47.664;9.162;2023-06-10T04:45:55;17.00;92.80
6948;DHT22;3513;47.664;9.162;2023-06-10T04:48:21;17.10;93.00
6948;DHT22;3513;47.664;9.162;2023-06-10T04:50:49;17.30;92.60
6948;DHT22;3513;47.664;9.162;2023-06-10T04:53:15;17.50;92.10
6948;DHT22;3513;47.664;9.162;2023-06-10T04:55:42;17.40;92.20
6948;DHT22;3513;47.664;9.162;2023-06-10T04:58:07;17.40;92.30
6948;DHT22;3513;47.664;9.162;2023-06-10T05:00:33;17.50;92.20
6948;DHT22;3513;47.664;9.162;2023-06-10T05:02:58;17.60;92.00
6948;DHT22;3513;47.664;9.162;2023-06-10T05:05:24;17.60;92.10
6948;DHT22;3513;47.664;9.162;2023-06-10T05:07:49;17.60;91.90
6948;DHT22;3513;47.664;9.162;2023-06-10T05:10:15;17.70;91.90
6948;DHT22;3513;47.664;9.162;2023-06-10T05:12:41;17.70;91.80
6948;DHT22;3513;47.664;9.162;2023-06-10T05:15:07;17.70;91.00
6948;DHT22;3513;47.664;9.162;2023-06-10T05:17:33;17.70;91.00
6948;DHT22;3513;47.664;9.162;2023-06-10T05:20:00;17.70;90.80
6948;DHT22;3513;47.664;9.162;2023-06-10T05:22:26;17.70;90.80
6948;DHT22;3513;47.664;9.162;2023-06-10T05:24:52;17.70;90.50
6948;DHT22;3513;47.664;9.162;2023-06-10T05:27:18;17.80;90.70
6948;DHT22;3513;47.664;9.162;2023-06-10T05:29:44;17.90;90.20
6948;DHT22;3513;47.664;9.162;2023-06-10T05:32:11;17.90;90.30
6948;DHT22;3513;47.664;9.162;2023-06-10T05:34:36;18.00;90.20
6948;DHT22;3513;47.664;9.162;2023-06-10T05:37:02;18.00;89.10
6948;DHT22;3513;47.664;9.162;2023-06-10T05:39:28;18.00;89.90
6948;DHT22;3513;47.664;9.162;2023-06-10T05:41:54;18.10;89.50
6948;DHT22;3513;47.664;9.162;2023-06-10T05:44:19;18.10;89.00
6948;DHT22;3513;47.664;9.162;2023-06-10T05:46:45;18.10;88.40
6948;DHT22;3513;47.664;9.162;2023-06-10T05:49:11;18.20;88.40
6948;DHT22;3513;47.664;9.162;2023-06-10T05:51:36;18.20;87.60
6948;DHT22;3513;47.664;9.162;2023-06-10T05:54:02;18.30;88.10
6948;DHT22;3513;47.664;9.162;2023-06-10T05:56:28;18.40;87.90
6948;DHT22;3513;47.664;9.162;2023-06-10T05:58:54;18.50;87.90
6948;DHT22;3513;47.664;9.162;2023-06-10T06:01:19;18.70;88.40
6948;DHT22;3513;47.664;9.162;2023-06-10T06:03:45;18.80;86.50
6948;DHT22;3513;47.664;9.162;2023-06-10T06:06:11;18.90;86.00
6948;DHT22;3513;47.664;9.162;2023-06-10T06:08:36;19.00;86.30
6948;DHT22;3513;47.664;9.162;2023-06-10T06:11:02;19.10;86.10
6948;DHT22;3513;47.664;9.162;2023-06-10T06:13:27;19.20;85.30
6948;DHT22;3513;47.664;9.162;2023-06-10T06:15:53;19.20;84.60
6948;DHT22;3513;47.664;9.162;2023-06-10T06:18:19;19.30;84.30
6948;DHT22;3513;47.664;9.162;2023-06-10T06:20:44;19.40;83.60
6948;DHT22;3513;47.664;9.162;2023-06-10T06:23:10;19.50;83.00
6948;DHT22;3513;47.664;9.162;2023-06-10T06:25:36;19.50;83.10
6948;DHT22;3513;47.664;9.162;2023-06-10T06:28:05;19.60;83.30
6948;DHT22;3513;47.664;9.162;2023-06-10T06:30:31;19.70;83.20
6948;DHT22;3513;47.664;9.162;2023-06-10T06:32:57;19.80;82.70
6948;DHT22;3513;47.664;9.162;2023-06-10T06:35:22;19.90;82.20
6948;DHT22;3513;47.664;9.162;2023-06-10T06:37:48;19.90;81.50
6948;DHT22;3513;47.664;9.162;2023-06-10T06:40:13;20.10;81.70
6948;DHT22;3513;47.664;9.162;2023-06-10T06:42:39;20.10;80.20
6948;DHT22;3513;47.664;9.162;2023-06-10T06:45:05;19.90;78.70
6948;DHT22;3513;47.664;9.162;2023-06-10T06:47:31;19.80;80.30
6948;DHT22;3513;47.664;9.162;2023-06-10T06:49:56;19.80;80.90
6948;DHT22;3513;47.664;9.162;2023-06-10T06:52:22;19.90;81.30
6948;DHT22;3513;47.664;9.162;2023-06-10T06:54:48;19.90;79.80
6948;DHT22;3513;47.664;9.162;2023-06-10T06:57:13;20.00;79.90
6948;DHT22;3513;47.664;9.162;2023-06-10T06:59:39;20.10;79.90
6948;DHT22;3513;47.664;9.162;2023-06-10T07:02:05;20.30;79.70
6948;DHT22;3513;47.664;9.162;2023-06-10T07:04:31;20.50;79.10
6948;DHT22;3513;47.664;9.162;2023-06-10T07:06:56;20.60;78.20
6948;DHT22;3513;47.664;9.162;2023-06-10T07:09:22;20.70;78.10
6948;DHT22;3513;47.664;9.162;2023-06-10T07:11:48;20.80;77.20
6948;DHT22;3513;47.664;9.162;2023-06-10T07:14:13;20.90;76.30
6948;DHT22;3513;47.664;9.162;2023-06-10T07:16:39;21.00;75.60
6948;DHT22;3513;47.664;9.162;2023-06-10T07:19:05;21.10;75.80
6948;DHT22;3513;47.664;9.162;2023-06-10T07:21:30;21.10;74.80
6948;DHT22;3513;47.664;9.162;2023-06-10T07:23:57;21.20;74.60
6948;DHT22;3513;47.664;9.162;2023-06-10T07:26:23;21.30;73.30
6948;DHT22;3513;47.664;9.162;2023-06-10T07:28:48;21.30;72.70
6948;DHT22;3513;47.664;9.162;2023-06-10T07:31:14;21.30;73.00
6948;DHT22;3513;47.664;9.162;2023-06-10T07:33:40;21.40;73.20
6948;DHT22;3513;47.664;9.162;2023-06-10T07:36:06;21.50;72.90
6948;DHT22;3513;47.664;9.162;2023-06-10T07:38:32;21.60;72.70
6948;DHT22;3513;47.664;9.162;2023-06-10T07:40:58;21.70;72.40
6948;DHT22;3513;47.664;9.162;2023-06-10T07:43:24;21.60;70.00
6948;DHT22;3513;47.664;9.162;2023-06-10T07:45:50;21.60;70.10
6948;DHT22;3513;47.664;9.162;2023-06-10T07:48:16;21.70;71.20
6948;DHT22;3513;47.664;9.162;2023-06-10T07:50:41;21.70;71.00
6948;DHT22;3513;47.664;9.162;2023-06-10T07:53:07;21.80;71.10
6948;DHT22;3513;47.664;9.162;2023-06-10T07:55:32;21.90;71.00
6948;DHT22;3513;47.664;9.162;2023-06-10T07:57:58;22.10;70.30
6948;DHT22;3513;47.664;9.162;2023-06-10T08:00:24;22.20;70.20
6948;DHT22;3513;47.664;9.162;2023-06-10T08:02:50;22.20;69.20
6948;DHT22;3513;47.664;9.162;2023-06-10T08:05:16;22.10;67.70
6948;DHT22;3513;47.664;9.162;2023-06-10T08:07:42;22.10;68.60
6948;DHT22;3513;47.664;9.162;2023-06-10T08:10:08;22.10;69.60
6948;DHT22;3513;47.664;9.162;2023-06-10T08:12:34;22.20;69.80
6948;DHT22;3513;47.664;9.162;2023-06-10T08:15:01;22.30;69.10
6948;DHT22;3513;47.664;9.162;2023-06-10T08:17:27;22.30;68.70
6948;DHT22;3513;47.664;9.162;2023-06-10T08:19:53;22.40;68.70
6948;DHT22;3513;47.664;9.162;2023-06-10T08:22:18;22.50;68.50
6948;DHT22;3513;47.664;9.162;2023-06-10T08:24:44;22.60;68.40
6948;DHT22;3513;47.664;9.162;2023-06-10T08:27:10;22.60;67.60
6948;DHT22;3513;47.664;9.162;2023-06-10T08:29:35;22.70;67.40
6948;DHT22;3513;47.664;9.162;2023-06-10T08:32:01;22.70;66.70
6948;DHT22;3513;47.664;9.162;2023-06-10T08:34:28;22.80;66.20
6948;DHT22;3513;47.664;9.162;2023-06-10T08:36:53;22.90;66.00
6948;DHT22;3513;47.664;9.162;2023-06-10T08:39:22;22.90;65.80
6948;DHT22;3513;47.664;9.162;2023-06-10T08:44:54;23.10;65.40
6948;DHT22;3513;47.664;9.162;2023-06-10T08:47:24;23.20;64.70
6948;DHT22;3513;47.664;9.162;2023-06-10T08:49:51;23.30;64.30
6948;DHT22;3513;47.664;9.162;2023-06-10T08:52:20;23.30;63.80
6948;DHT22;3513;47.664;9.162;2023-06-10T08:54:52;22.90;63.40
6948;DHT22;3513;47.664;9.162;2023-06-10T08:57:18;22.70;65.70
6948;DHT22;3513;47.664;9.162;2023-06-10T08:59:46;22.80;65.80
6948;DHT22;3513;47.664;9.162;2023-06-10T09:02:13;22.80;65.00
6948;DHT22;3513;47.664;9.162;2023-06-10T09:04:43;22.80;65.50
6948;DHT22;3513;47.664;9.162;2023-06-10T09:07:10;22.90;64.90
6948;DHT22;3513;47.664;9.162;2023-06-10T09:09:37;23.00;64.80
6948;DHT22;3513;47.664;9.162;2023-06-10T09:12:03;23.20;65.30
6948;DHT22;3513;47.664;9.162;2023-06-10T09:14:29;23.20;63.90
6948;DHT22;3513;47.664;9.162;2023-06-10T09:16:55;23.30;63.30
6948;DHT22;3513;47.664;9.162;2023-06-10T09:19:25;23.40;64.50
6948;DHT22;3513;47.664;9.162;2023-06-10T09:21:52;23.50;63.90
6948;DHT22;3513;47.664;9.162;2023-06-10T09:24:18;23.80;63.30
6948;DHT22;3513;47.664;9.162;2023-06-10T09:26:44;23.90;62.20
6948;DHT22;3513;47.664;9.162;2023-06-10T09:29:11;24.00;61.90
6948;DHT22;3513;47.664;9.162;2023-06-10T09:31:38;24.00;61.90
6948;DHT22;3513;47.664;9.162;2023-06-10T09:34:08;24.10;62.50
6948;DHT22;3513;47.664;9.162;2023-06-10T09:36:35;24.30;60.70
6948;DHT22;3513;47.664;9.162;2023-06-10T09:39:01;24.30;60.20
6948;DHT22;3513;47.664;9.162;2023-06-10T09:41:34;24.30;60.50
6948;DHT22;3513;47.664;9.162;2023-06-10T09:44:00;24.50;61.30
6948;DHT22;3513;47.664;9.162;2023-06-10T09:46:30;24.60;61.30
6948;DHT22;3513;47.664;9.162;2023-06-10T09:49:00;24.80;60.90
6948;DHT22;3513;47.664;9.162;2023-06-10T09:51:25;24.90;59.60
6948;DHT22;3513;47.664;9.162;2023-06-10T09:53:52;24.80;59.10
6948;DHT22;3513;47.664;9.162;2023-06-10T09:56:18;24.90;59.90
6948;DHT22;3513;47.664;9.162;2023-06-10T09:58:44;25.00;59.80
6948;DHT22;3513;47.664;9.162;2023-06-10T10:01:14;25.10;59.60
6948;DHT22;3513;47.664;9.162;2023-06-10T10:03:48;25.30;59.20
6948;DHT22;3513;47.664;9.162;2023-06-10T10:06:19;25.50;59.20
6948;DHT22;3513;47.664;9.162;2023-06-10T10:08:46;25.60;58.10
6948;DHT22;3513;47.664;9.162;2023-06-10T10:11:12;25.60;57.20
6948;DHT22;3513;47.664;9.162;2023-06-10T10:13:39;25.50;57.60
6948;DHT22;3513;47.664;9.162;2023-06-10T10:16:19;25.60;57.90
6948;DHT22;3513;47.664;9.162;2023-06-10T10:18:56;25.70;57.80
6948;DHT22;3513;47.664;9.162;2023-06-10T10:21:31;25.80;56.50
6948;DHT22;3513;47.664;9.162;2023-06-10T10:24:12;25.80;57.10
6948;DHT22;3513;47.664;9.162;2023-06-10T10:26:41;25.80;57.50
6948;DHT22;3513;47.664;9.162;2023-06-10T10:29:12;26.00;56.60
6948;DHT22;3513;47.664;9.162;2023-06-10T10:31:41;25.80;56.10
6948;DHT22;3513;47.664;9.162;2023-06-10T10:34:12;25.70;56.50
6948;DHT22;3513;47.664;9.162;2023-06-10T10:36:38;25.80;56.90
6948;DHT22;3513;47.664;9.162;2023-06-10T10:39:04;25.90;56.80
6948;DHT22;3513;47.664;9.162;2023-06-10T10:41:31;26.00;56.70
6948;DHT22;3513;47.664;9.162;2023-06-10T10:43:58;26.20;55.90
6948;DHT22;3513;47.664;9.162;2023-06-10T10:46:24;26.30;56.10
6948;DHT22;3513;47.664;9.162;2023-06-10T10:48:54;26.50;56.00
6948;DHT22;3513;47.664;9.162;2023-06-10T10:51:20;26.70;54.50
6948;DHT22;3513;47.664;9.162;2023-06-10T10:54:12;26.60;54.60
6948;DHT22;3513;47.664;9.162;2023-06-10T11:02:17;27.20;54.10
6948;DHT22;3513;47.664;9.162;2023-06-10T11:04:47;27.40;53.50
6948;DHT22;3513;47.664;9.162;2023-06-10T11:07:14;27.50;53.20
6948;DHT22;3513;47.664;9.162;2023-06-10T11:10:10;27.70;53.30
6948;DHT22;3513;47.664;9.162;2023-06-10T11:15:28;28.00;50.90
6948;DHT22;3513;47.664;9.162;2023-06-10T11:18:27;28.10;51.30
6948;DHT22;3513;47.664;9.162;2023-06-10T11:31:22;28.80;48.70
6948;DHT22;3513;47.664;9.162;2023-06-10T11:33:51;28.90;48.00
6948;DHT22;3513;47.664;9.162;2023-06-10T11:36:17;28.90;48.10
6948;DHT22;3513;47.664;9.162;2023-06-10T11:38:44;29.00;48.40
6948;DHT22;3513;47.664;9.162;2023-06-10T11:41:11;28.90;47.10
6948;DHT22;3513;47.664;9.162;2023-06-10T11:43:43;28.90;47.90
6948;DHT22;3513;47.664;9.162;2023-06-10T11:46:10;29.00;47.60
6948;DHT22;3513;47.664;9.162;2023-06-10T11:48:36;29.10;47.80
6948;DHT22;3513;47.664;9.162;2023-06-10T11:51:06;29.20;46.90
6948;DHT22;3513;47.664;9.162;2023-06-10T11:53:32;29.30;46.90
6948;DHT22;3513;47.664;9.162;2023-06-10T11:55:58;29.30;45.40
6948;DHT22;3513;47.664;9.162;2023-06-10T11:58:23;29.30;45.20
6948;DHT22;3513;47.664;9.162;2023-06-10T12:00:54;29.10;46.10
6948;DHT22;3513;47.664;9.162;2023-06-10T12:03:20;29.20;47.20
6948;DHT22;3513;47.664;9.162;2023-06-10T12:05:57;29.40;46.80
6948;DHT22;3513;47.664;9.162;2023-06-10T12:08:26;29.20;46.40
6948;DHT22;3513;47.664;9.162;2023-06-10T12:10:53;29.90;46.20
6948;DHT22;3513;47.664;9.162;2023-06-10T12:13:19;30.10;44.60
6948;DHT22;3513;47.664;9.162;2023-06-10T12:15:45;30.30;45.50
6948;DHT22;3513;47.664;9.162;2023-06-10T12:18:21;30.40;42.90
6948;DHT22;3513;47.664;9.162;2023-06-10T12:20:47;30.40;43.10
6948;DHT22;3513;47.664;9.162;2023-06-10T12:23:14;30.50;43.10
6948;DHT22;3513;47.664;9.162;2023-06-10T12:25:52;30.40;43.20
6948;DHT22;3513;47.664;9.162;2023-06-10T12:28:25;30.50;44.10
6948;DHT22;3513;47.664;9.162;2023-06-10T12:30:51;30.50;43.50
6948;DHT22;3513;47.664;9.162;2023-06-10T12:33:20;30.80;43.90
6948;DHT22;3513;47.664;9.162;2023-06-10T12:35:52;30.90;42.20
6948;DHT22;3513;47.664;9.162;2023-06-10T12:38:25;31.00;40.50
6948;DHT22;3513;47.664;9.162;2023-06-10T12:41:00;30.90;39.70
6948;DHT22;3513;47.664;9.162;2023-06-10T12:43:26;31.00;41.40
6948;DHT22;3513;47.664;9.162;2023-06-10T12:45:52;31.20;41.00
6948;DHT22;3513;47.664;9.162;2023-06-10T12:48:22;31.50;41.40
6948;DHT22;3513;47.664;9.162;2023-06-10T12:50:53;31.80;40.50
6948;DHT22;3513;47.664;9.162;2023-06-10T12:53:21;31.90;40.00
6948;DHT22;3513;47.664;9.162;2023-06-10T12:55:48;32.00;39.90
6948;DHT22;3513;47.664;9.162;2023-06-10T12:58:14;32.20;39.20
6948;DHT22;3513;47.664;9.162;2023-06-10T13:00:40;32.50;38.70
6948;DHT22;3513;47.664;9.162;2023-06-10T13:03:08;32.60;37.50
6948;DHT22;3513;47.664;9.162;2023-06-10T13:05:38;32.60;37.40
6948;DHT22;3513;47.664;9.162;2023-06-10T13:08:07;32.60;36.90
6948;DHT22;3513;47.664;9.162;2023-06-10T13:10:35;32.60;35.80
6948;DHT22;3513;47.664;9.162;2023-06-10T13:13:01;32.40;36.10
6948;DHT22;3513;47.664;9.162;2023-06-10T13:15:27;32.10;35.40
6948;DHT22;3513;47.664;9.162;2023-06-10T13:17:53;31.30;36.10
6948;DHT22;3513;47.664;9.162;2023-06-10T13:20:19;30.80;37.80
6948;DHT22;3513;47.664;9.162;2023-06-10T13:22:46;30.70;37.80
6948;DHT22;3513;47.664;9.162;2023-06-10T13:25:11;31.00;38.90
6948;DHT22;3513;47.664;9.162;2023-06-10T13:27:37;31.60;38.40
6948;DHT22;3513;47.664;9.162;2023-06-10T13:30:05;32.00;37.00
6948;DHT22;3513;47.664;9.162;2023-06-10T13:32:31;32.50;37.30
6948;DHT22;3513;47.664;9.162;2023-06-10T13:34:56;32.80;36.60
6948;DHT22;3513;47.664;9.162;2023-06-10T13:37:22;32.80;35.30
6948;DHT22;3513;47.664;9.162;2023-06-10T13:39:48;33.00;36.30
6948;DHT22;3513;47.664;9.162;2023-06-10T13:42:17;33.40;35.50
6948;DHT22;3513;47.664;9.162;2023-06-10T13:44:42;33.60;35.00
6948;DHT22;3513;47.664;9.162;2023-06-10T13:47:08;33.80;35.00
6948;DHT22;3513;47.664;9.162;2023-06-10T13:49:33;34.10;35.00
6948;DHT22;3513;47.664;9.162;2023-06-10T13:51:59;34.40;33.90
6948;DHT22;3513;47.664;9.162;2023-06-10T13:54:24;34.80;33.80
6948;DHT22;3513;47.664;9.162;2023-06-10T13:56:50;35.10;33.30
6948;DHT22;3513;47.664;9.162;2023-06-10T13:59:16;35.50;33.20
6948;DHT22;3513;47.664;9.162;2023-06-10T14:01:41;35.80;32.80
6948;DHT22;3513;47.664;9.162;2023-06-10T14:04:07;36.10;32.10
6948;DHT22;3513;47.664;9.162;2023-06-10T14:06:33;36.30;32.00
6948;DHT22;3513;47.664;9.162;2023-06-10T14:09:02;36.40;32.00
6948;DHT22;3513;47.664;9.162;2023-06-10T14:11:27;36.70;31.60
6948;DHT22;3513;47.664;9.162;2023-06-10T14:13:53;36.50;30.90
6948;DHT22;3513;47.664;9.162;2023-06-10T14:16:21;36.00;31.10
6948;DHT22;3513;47.664;9.162;2023-06-10T14:18:47;35.70;31.40
6948;DHT22;3513;47.664;9.162;2023-06-10T14:21:12;35.60;31.70
6948;DHT22;3513;47.664;9.162;2023-06-10T14:23:38;35.80;31.70
6948;DHT22;3513;47.664;9.162;2023-06-10T14:26:04;35.70;31.00
6948;DHT22;3513;47.664;9.162;2023-06-10T14:28:31;35.70;31.20
6948;DHT22;3513;47.664;9.162;2023-06-10T14:30:57;35.90;30.80
6948;DHT22;3513;47.664;9.162;2023-06-10T14:33:23;36.10;30.40
6948;DHT22;3513;47.664;9.162;2023-06-10T14:35:49;36.30;29.10
6948;DHT22;3513;47.664;9.162;2023-06-10T14:38:15;36.60;29.60
6948;DHT22;3513;47.664;9.162;2023-06-10T14:40:40;36.80;29.80
6948;DHT22;3513;47.664;9.162;2023-06-10T14:43:06;37.00;29.30
6948;DHT22;3513;47.664;9.162;2023-06-10T14:45:39;37.10;29.40
6948;DHT22;3513;47.664;9.162;2023-06-10T14:48:06;37.20;29.60
6948;DHT22;3513;47.664;9.162;2023-06-10T14:50:35;37.40;29.60
6948;DHT22;3513;47.664;9.162;2023-06-10T14:53:00;37.60;29.50
6948;DHT22;3513;47.664;9.162;2023-06-10T14:55:29;37.80;29.50
6948;DHT22;3513;47.664;9.162;2023-06-10T14:57:54;38.00;28.90
6948;DHT22;3513;47.664;9.162;2023-06-10T15:00:21;38.30;28.90
6948;DHT22;3513;47.664;9.162;2023-06-10T15:02:49;38.30;28.60
6948;DHT22;3513;47.664;9.162;2023-06-10T15:05:15;38.30;28.30
6948;DHT22;3513;47.664;9.162;2023-06-10T15:07:42;38.30;28.40
6948;DHT22;3513;47.664;9.162;2023-06-10T15:10:08;38.40;28.70
6948;DHT22;3513;47.664;9.162;2023-06-10T15:12:34;38.60;28.30
6948;DHT22;3513;47.664;9.162;2023-06-10T15:15:03;38.80;28.50
6948;DHT22;3513;47.664;9.162;2023-06-10T15:17:29;39.00;28.00
6948;DHT22;3513;47.664;9.162;2023-06-10T15:19:55;37.80;26.60
6948;DHT22;3513;47.664;9.162;2023-06-10T15:22:21;39.20;27.30
6948;DHT22;3513;47.664;9.162;2023-06-10T15:24:46;39.10;26.50
6948;DHT22;3513;47.664;9.162;2023-06-10T15:27:13;38.60;27.00
6948;DHT22;3513;47.664;9.162;2023-06-10T15:29:38;38.40;27.80
6948;DHT22;3513;47.664;9.162;2023-06-10T15:32:05;38.80;27.90
6948;DHT22;3513;47.664;9.162;2023-06-10T15:34:30;39.10;27.60
6948;DHT22;3513;47.664;9.162;2023-06-10T15:37:14;39.10;27.50
6948;DHT22;3513;47.664;9.162;2023-06-10T15:39:45;38.40;27.60
6948;DHT22;3513;47.664;9.162;2023-06-10T15:42:11;38.00;28.50
6948;DHT22;3513;47.664;9.162;2023-06-10T15:44:37;38.30;28.30
6948;DHT22;3513;47.664;9.162;2023-06-10T15:47:03;38.80;27.40
6948;DHT22;3513;47.664;9.162;2023-06-10T15:49:28;39.20;26.60
6948;DHT22;3513;47.664;9.162;2023-06-10T15:51:54;39.60;26.50
6948;DHT22;3513;47.664;9.162;2023-06-10T15:54:34;40.20;26.40
6948;DHT22;3513;47.664;9.162;2023-06-10T15:57:00;40.40;25.40
6948;DHT22;3513;47.664;9.162;2023-06-10T15:59:39;40.30;26.40
6948;DHT22;3513;47.664;9.162;2023-06-10T16:02:05;40.80;25.80
6948;DHT22;3513;47.664;9.162;2023-06-10T16:04:31;41.20;25.50
6948;DHT22;3513;47.664;9.162;2023-06-10T16:06:57;41.60;24.90
6948;DHT22;3513;47.664;9.162;2023-06-10T16:09:22;42.10;24.60
6948;DHT22;3513;47.664;9.162;2023-06-10T16:11:48;42.40;24.20
6948;DHT22;3513;47.664;9.162;2023-06-10T16:14:13;42.80;23.70
6948;DHT22;3513;47.664;9.162;2023-06-10T16:16:39;43.10;23.30
6948;DHT22;3513;47.664;9.162;2023-06-10T16:19:05;43.40;23.20
6948;DHT22;3513;47.664;9.162;2023-06-10T16:21:31;43.60;22.90
6948;DHT22;3513;47.664;9.162;2023-06-10T16:23:56;43.70;23.00
6948;DHT22;3513;47.664;9.162;2023-06-10T16:26:22;43.60;22.60
6948;DHT22;3513;47.664;9.162;2023-06-10T16:28:48;43.70;22.80